createdAt,value
2022-12-19T00:00:34.711Z,11.75
2022-12-19T00:05:41.078Z,10.13
2022-12-19T00:10:43.559Z,11.98
2022-12-19T00:15:45.380Z,10.10
2022-12-19T00:21:08.655Z,10.48
2022-12-19T00:26:14.754Z,10.50
2022-12-19T00:31:18.830Z,10.43
2022-12-19T00:36:23.660Z,11.05
2022-12-19T00:41:31.054Z,12.18
2022-12-19T00:46:34.620Z,9.82
2022-12-19T00:51:37.719Z,10.52
2022-12-19T00:56:43.400Z,9.93
2022-12-19T01:01:45.591Z,11.23
2022-12-19T01:06:49.942Z,12.48
2022-12-19T01:12:11.086Z,12.45
2022-12-19T01:17:13.268Z,9.88
2022-12-19T01:22:15.237Z,10.00
2022-12-19T01:27:16.998Z,11.98
2022-12-19T01:32:18.742Z,11.73
2022-12-19T01:37:20.721Z,11.32
2022-12-19T01:42:24.179Z,12.23
2022-12-19T01:47:26.508Z,11.65
2022-12-19T01:52:28.436Z,12.25
2022-12-19T01:57:30.326Z,11.10
2022-12-19T02:02:37.327Z,12.10
2022-12-19T02:07:41.036Z,11.75
2022-12-19T02:12:45.444Z,9.98
2022-12-19T02:17:54.476Z,10.82
2022-12-19T02:23:28.750Z,9.35
2022-12-19T02:29:01.679Z,11.05
2022-12-19T02:34:11.654Z,11.00
2022-12-19T02:39:32.150Z,12.23
2022-12-19T02:44:43.160Z,10.35
2022-12-19T02:49:45.329Z,9.90
2022-12-19T02:54:53.605Z,9.95
2022-12-19T03:00:08.138Z,9.93
2022-12-19T03:05:35.825Z,8.63
2022-12-19T03:10:45.646Z,10.27
2022-12-19T03:15:50.051Z,8.13
2022-12-19T03:21:08.826Z,8.65
2022-12-19T03:26:16.689Z,8.82
2022-12-19T03:31:22.251Z,7.97
2022-12-19T03:36:40.259Z,8.02
2022-12-19T03:42:03.101Z,9.52
2022-12-19T03:47:31.284Z,6.80
2022-12-19T03:52:38.784Z,7.40
2022-12-19T04:02:53.742Z,7.80
2022-12-19T04:08:00.908Z,6.78
2022-12-19T04:13:14.284Z,8.18
2022-12-19T04:18:18.587Z,8.85
2022-12-19T04:23:32.233Z,9.00
2022-12-19T04:28:40.736Z,7.63
2022-12-19T04:33:42.895Z,7.90
2022-12-19T04:38:44.685Z,6.40
2022-12-19T04:43:46.405Z,7.93
2022-12-19T04:48:48.131Z,6.70
2022-12-19T04:53:52.817Z,7.57
2022-12-19T04:58:59.212Z,7.03
2022-12-19T05:04:04.414Z,7.22
2022-12-19T05:09:06.631Z,7.28
2022-12-19T05:14:09.083Z,7.07
2022-12-19T05:19:11.149Z,7.97
2022-12-19T05:24:13.053Z,7.07
2022-12-19T05:29:15.849Z,8.52
2022-12-19T05:34:17.630Z,8.18
2022-12-19T05:39:19.409Z,8.02
2022-12-19T05:44:21.336Z,6.07
2022-12-19T05:49:23.358Z,7.93
2022-12-19T05:54:27.244Z,7.95
2022-12-19T05:59:29.122Z,8.13
2022-12-19T06:04:31.239Z,7.25
2022-12-19T06:09:33.133Z,8.35
2022-12-19T06:14:34.932Z,9.02
2022-12-19T06:19:36.797Z,8.23
2022-12-19T06:24:38.672Z,7.82
2022-12-19T06:29:40.467Z,7.20
2022-12-19T06:40:04.549Z,8.60
2022-12-19T06:45:06.942Z,8.07
2022-12-19T06:50:08.997Z,9.82
2022-12-19T06:55:10.976Z,10.38
2022-12-19T07:00:14.475Z,10.63
2022-12-19T07:05:16.720Z,8.93
2022-12-19T07:10:18.630Z,8.60
2022-12-19T07:15:20.711Z,9.73
2022-12-19T07:20:22.648Z,9.07
2022-12-19T07:25:24.611Z,10.63
2022-12-19T07:30:26.451Z,9.30
2022-12-19T07:35:28.789Z,10.15
2022-12-19T07:40:30.567Z,9.65
2022-12-19T07:45:33.548Z,10.82
2022-12-19T07:50:35.415Z,10.75
2022-12-19T07:55:37.255Z,8.88
2022-12-19T08:00:39.004Z,10.50
2022-12-19T08:05:40.815Z,9.65
2022-12-19T08:10:42.688Z,9.25
2022-12-19T08:15:44.491Z,8.95
2022-12-19T08:20:46.891Z,9.63
2022-12-19T08:25:49.044Z,9.82
2022-12-19T08:30:50.944Z,9.70
2022-12-19T08:35:52.849Z,8.55
2022-12-19T08:40:54.807Z,9.02
2022-12-19T08:45:56.905Z,8.77
2022-12-19T08:51:04.705Z,8.60
2022-12-19T09:01:16.408Z,9.45
2022-12-19T09:06:19.495Z,10.05
2022-12-19T09:11:21.750Z,8.60
2022-12-19T09:16:26.057Z,10.48
2022-12-19T09:21:30.069Z,12.00
2022-12-19T09:26:33.592Z,10.68
2022-12-19T09:31:35.799Z,11.18
2022-12-19T09:36:37.883Z,10.20
2022-12-19T09:41:59.161Z,10.65
2022-12-19T09:47:13.425Z,11.18
2022-12-19T09:52:27.308Z,10.65
2022-12-19T09:57:49.940Z,9.20
2022-12-19T10:03:03.197Z,11.25
2022-12-19T10:08:17.711Z,11.18
2022-12-19T10:13:47.919Z,10.82
2022-12-19T10:19:00.671Z,9.75
2022-12-19T10:24:11.616Z,12.00
2022-12-19T10:29:41.252Z,10.50
2022-12-19T10:34:45.790Z,11.80
2022-12-19T10:40:07.344Z,10.68
2022-12-19T10:45:18.001Z,10.65
2022-12-19T10:50:26.638Z,9.57
2022-12-19T10:55:54.084Z,10.43
2022-12-19T11:01:05.329Z,8.53
2022-12-19T11:06:28.368Z,10.93
2022-12-19T11:12:43.875Z,9.63
2022-12-19T11:25:38.194Z,10.02
2022-12-19T11:29:41.631Z,9.55
2022-12-19T11:30:09.927Z,10.00
2022-12-19T11:33:18.764Z,11.75
2022-12-19T11:38:42.549Z,9.43
2022-12-19T11:44:02.126Z,11.88
2022-12-19T11:49:15.603Z,10.45
2022-12-19T11:54:20.384Z,9.73
2022-12-19T11:59:30.680Z,11.90
2022-12-19T12:04:57.325Z,12.07
2022-12-19T12:16:26.185Z,10.30
2022-12-19T12:26:38.382Z,9.70
2022-12-19T12:31:32.292Z,10.38
2022-12-19T12:32:02.056Z,15.48
2022-12-19T12:35:51.342Z,15.38
2022-12-19T12:38:35.661Z,12.70
2022-12-19T12:44:05.081Z,11.57
2022-12-19T12:49:33.624Z,11.38
2022-12-19T12:54:42.841Z,13.70
2022-12-19T12:59:46.532Z,11.70
2022-12-19T13:04:59.309Z,11.55
2022-12-19T13:10:12.902Z,16.63
2022-12-19T13:15:31.942Z,15.10
2022-12-19T13:20:46.183Z,13.05
2022-12-19T13:25:54.122Z,13.18
2022-12-19T13:31:21.075Z,11.65
2022-12-19T13:39:52.337Z,11.32
2022-12-19T13:42:46.149Z,13.15
2022-12-19T13:47:51.229Z,12.00
2022-12-19T13:52:53.601Z,12.07
2022-12-19T13:57:56.811Z,12.63
2022-12-19T14:03:00.636Z,12.93
2022-12-19T14:08:05.354Z,11.38
2022-12-19T14:14:02.001Z,11.65
2022-12-19T14:19:27.920Z,12.10
2022-12-19T14:24:29.764Z,11.55
2022-12-19T14:30:26.402Z,12.23
2022-12-19T14:36:07.760Z,10.07
2022-12-19T14:53:51.855Z,8.68
2022-12-19T14:54:21.240Z,8.40
2022-12-19T14:57:01.052Z,8.80
2022-12-19T15:02:27.914Z,8.73
2022-12-19T15:07:35.737Z,8.57
2022-12-19T15:14:58.724Z,9.00
2022-12-19T15:19:00.351Z,8.95
2022-12-19T15:24:02.195Z,10.23
2022-12-19T15:29:14.133Z,9.63
2022-12-19T15:34:36.207Z,9.82
2022-12-19T15:39:40.995Z,9.57
2022-12-19T15:44:44.631Z,10.27
2022-12-19T15:49:47.290Z,9.68
2022-12-19T15:54:50.631Z,10.63
2022-12-19T15:59:53.640Z,9.88
2022-12-19T16:05:03.529Z,8.07
2022-12-19T16:10:07.382Z,9.70
2022-12-19T16:15:26.613Z,10.65
2022-12-19T16:20:31.762Z,8.77
2022-12-19T16:25:41.353Z,10.43
2022-12-19T16:30:44.638Z,10.25
2022-12-19T16:36:04.601Z,10.52
2022-12-19T16:41:17.738Z,9.38
2022-12-19T16:46:23.577Z,9.60
2022-12-19T16:51:28.356Z,9.95
2022-12-19T16:56:34.978Z,8.68
2022-12-19T17:01:36.893Z,8.38
2022-12-19T17:06:38.681Z,8.93
2022-12-19T17:11:41.836Z,9.32
2022-12-19T17:16:44.359Z,9.55
2022-12-19T17:21:46.224Z,10.02
2022-12-19T17:26:48.097Z,10.20
2022-12-19T17:31:49.982Z,10.10
2022-12-19T17:36:52.064Z,10.63
2022-12-19T17:41:57.715Z,11.65
2022-12-19T17:47:00.876Z,11.47
2022-12-19T17:52:02.718Z,9.63
2022-12-19T17:57:04.651Z,10.25
2022-12-19T18:02:19.944Z,13.70
2022-12-19T18:07:21.841Z,12.15
2022-12-19T18:12:23.861Z,13.60
2022-12-19T18:17:26.170Z,12.30
2022-12-19T18:22:27.993Z,11.60
2022-12-19T18:27:32.094Z,10.25
2022-12-19T18:32:33.931Z,12.38
2022-12-19T18:37:38.191Z,11.43
2022-12-19T18:42:40.111Z,11.23
2022-12-19T18:47:46.924Z,11.95
2022-12-19T18:52:53.896Z,12.38
2022-12-19T18:57:56.118Z,11.93
2022-12-19T19:03:08.062Z,10.68
2022-12-19T19:08:23.742Z,11.07
2022-12-19T19:13:36.611Z,10.98
2022-12-19T19:18:43.717Z,10.30
2022-12-19T19:23:48.360Z,10.35
2022-12-19T19:28:52.380Z,10.90
2022-12-19T19:34:00.378Z,10.93
2022-12-19T19:39:03.325Z,10.60
2022-12-19T19:44:05.231Z,10.18
2022-12-19T19:49:07.781Z,10.93
2022-12-19T19:54:09.974Z,10.55
2022-12-19T19:59:11.732Z,11.93
2022-12-19T20:04:15.004Z,9.35
2022-12-19T20:09:17.351Z,10.05
2022-12-19T20:14:19.228Z,10.80
2022-12-19T20:19:21.132Z,11.25
2022-12-19T20:24:22.966Z,12.55
2022-12-19T20:29:25.616Z,12.98
2022-12-19T20:34:27.458Z,9.52
2022-12-19T20:39:29.272Z,11.13
2022-12-19T20:44:31.123Z,9.50
2022-12-19T20:49:32.994Z,10.40
2022-12-19T20:54:34.795Z,11.13
2022-12-19T20:59:36.506Z,10.10
2022-12-19T21:04:38.620Z,10.57
2022-12-19T21:09:44.942Z,11.43
2022-12-19T21:14:47.101Z,9.48
2022-12-19T21:19:49.019Z,10.45
2022-12-19T21:24:50.890Z,10.60
2022-12-19T21:29:52.823Z,11.88
2022-12-19T21:34:54.702Z,10.63
2022-12-19T21:39:56.544Z,12.75
2022-12-19T21:44:58.422Z,12.45
2022-12-19T21:50:00.681Z,11.27
2022-12-19T21:55:03.364Z,12.38
2022-12-19T22:00:07.398Z,14.88
2022-12-19T22:05:09.310Z,15.70
2022-12-19T22:10:11.353Z,13.40
2022-12-19T22:15:13.225Z,12.60
2022-12-19T22:20:15.583Z,13.85
2022-12-19T22:25:17.647Z,14.18
2022-12-19T22:30:19.683Z,12.77
2022-12-19T22:35:21.405Z,12.35
2022-12-19T22:40:23.322Z,14.25
2022-12-19T22:45:25.653Z,13.40
2022-12-19T22:50:27.543Z,13.70
2022-12-19T22:55:29.271Z,13.80
2022-12-19T23:00:31.007Z,12.77
2022-12-19T23:05:36.593Z,12.98
2022-12-19T23:10:38.371Z,13.52
2022-12-19T23:15:42.918Z,15.82
2022-12-19T23:20:44.675Z,13.68
2022-12-19T23:25:46.430Z,12.40
2022-12-19T23:30:48.244Z,13.57
2022-12-19T23:35:50.025Z,13.32
2022-12-19T23:40:51.775Z,12.20
2022-12-19T23:45:53.669Z,13.20
2022-12-19T23:51:04.339Z,12.82
2022-12-19T23:56:12.451Z,15.38
